AirNav   Everest Fuels
 
 1112 users online  

36NH Long Pond Landing Heliport
Pelham, New Hampshire, USA

GOING TO PELHAM?


FAA INFORMATION EFFECTIVE 02 JANUARY 2020

Location

FAA Identifier: 36NH
Lat/Long: 42-42-03.0000N 071-22-16.0000W
42-42.050000N 071-22.266667W
42.7008333,-71.3711111
(estimated)
Elevation: 185 ft. / 56 m (estimated)
From city: 2 miles SE of PELHAM, NH
Time zone: UTC -5 (UTC -4 during Daylight Saving Time)
Zip code: 03076

Heliport Operations

Heliport use: Private use. Permission required prior to landing
Activation date: 08/2004
Control tower: no
ARTCC: BOSTON CENTER
FSS: BURLINGTON FLIGHT SERVICE STATION
Attendance: UNATNDD
Segmented circle: no

Heliport Communications

WX AWOS-3PT at ASH (8 nm NW): 125.1 (603-578-0473)
WX ASOS at LWM (11 nm E): PHONE 978-687-8017
WX ASOS at MHT (14 nm N): 119.55 (603-621-1766)
WX ASOS at BED (14 nm S): 124.6 (781-274-9733)
WX ASOS at FIT (19 nm SW): 135.175 (978-343-9121)

Nearby radio navigation aids

VOR radial/distance  VOR name  Freq  Var
MHTr195/10.1MANCHESTER VOR/DME114.4015W
LWMr274/12.4LAWRENCE VOR/DME112.5015W
BOSr337/26.6BOSTON VOR/DME112.7016W
GDMr087/31.7GARDNER VOR/DME110.6014W
CONr179/32.4CONCORD VOR/DME112.9015W
PSMr242/33.0PEASE VOR/DME116.5016W

 
NDB name  Hdg/Dist  Freq  Var  ID
FITZY160/12.020915WMJ -- .---
ROLLINS233/39.226016WESG . ... --.

Heliport Services

Runway Information

Helipad H1

Dimensions: 87 x 40 ft. / 27 x 12 m
Surface: asphalt
Traffic pattern: leftleft

Heliport Ownership and Management from official FAA records

Ownership: Privately-owned
Owner: RICHARD & BRENDA LANNAN
11 MCGRATH RD
PELHAM, NH 03076
Phone 603-635-0879
Manager: STEVEN R. RANCOURT
7 MCGRATH ROAD
PELHAM, NH 03076
Phone 603-635-3269

Additional Remarks

OWNER DOES NOT WANT HELIPORT CHARTED.
800 FT TOWERS WITH WIRES 2.1 NM NORTH OF PAD.
PPR FROM OWNERS OR MANAGER FOR ANY LANDING.
FOR CD CTC BOSTON APCH AT 603-594-5551.

Instrument Procedures

There are no published instrument procedures at 36NH.

Some nearby airports with instrument procedures:

KASH - Boire Field Airport (8 nm NW)
KLWM - Lawrence Municipal Airport (11 nm E)
KMHT - Manchester Airport (14 nm N)
KBED - Laurence G Hanscom Field Airport (14 nm S)
6B6 - Minute Man Air Field (16 nm SW)
KFIT - Fitchburg Municipal Airport (19 nm SW)
 
Loc | Ops | Rwys | IFR | FBO | Links
Com | Nav | Svcs | Stats | Notes
Area around 36NH (Long Pond Landing Heliport)
 
Road maps at: MapQuest Bing Google
 
Aerial photo
No photo
 
Sectional chart

 
Airport distance calculator
Flying to Long Pond Landing Heliport? Find the distance to fly.

From to 36NH

Sunrise and sunset
Times for 26-Jan-2020
 Local
(UTC-5)
 Zulu
(UTC)
Morning civil twilight06:3611:36
Sunrise07:0712:07
Sunset16:4921:49
Evening civil twilight17:2022:20

Current date and time
Zulu (UTC)  26-Jan-2020 23:08:00
Local (UTC-5)  26-Jan-2020 18:08:00
 
METAR
KASH 
8nm NW 
262256Z 00000KT 10SM BKN048 04/M03 A2967 RMK AO2 SLP054 T00441028
KLWM 
11nm E 
262254Z 25008KT 10SM BKN055 04/M03 A2968 RMK AO2 SLP050 T00441033 $
KMHT 
14nm N 
262253Z 25008KT 10SM BKN049 05/M04 A2964 RMK AO2 SLP055 T00501039
KBED 
14nm S 
262251Z 26005KT 10SM BKN050 05/M04 A2967 RMK AO2 SLP062 T00501044
KFIT 
19nm SW 
262252Z AUTO 00000KT 10SM FEW049 04/M03 A2967 RMK AO2 SLP052 T00391033
TAF
KMHT 
14nm N 
261720Z 2618/2718 28010KT P6SM FEW030 FM270200 22003KT P6SM BKN100
KBED 
14nm S 
261722Z 2618/2718 26013G19KT P6SM SCT040 FM262000 26009KT P6SM SCT040 FM270700 24006KT P6SM FEW050 BKN150 FM271600 27009KT P6SM BKN050
NOTAMs
Click for the latest NOTAMs
NOTAMs are issued by the DoD/FAA and will open in a separate window not controlled by AirNav.

 

 
 

Would you like to see your business listed on this page?

 If your business provides an interesting product or service to pilots, flight crews, aircraft, or users of the Long Pond Landing Heliport, you should consider listing it here.  To start the listing process, click on the button below
 
Add a business
 

Other Pages about Long Pond Landing Heliport

Update a link
 
Copyright © AirNav, LLC. All rights reserved. Privacy Policy  Contact